createdAt,value
2019-02-04T00:02:19.166Z,13.43
2019-02-04T00:04:50.122Z,11.12
2019-02-04T00:07:21.385Z,13.15
2019-02-04T00:09:52.373Z,12.20
2019-02-04T00:12:23.334Z,12.28
2019-02-04T00:14:54.336Z,12.95
2019-02-04T00:17:26.312Z,12.18
2019-02-04T00:19:57.572Z,13.20
2019-02-04T00:22:28.522Z,11.22
2019-02-04T00:24:59.430Z,11.48
2019-02-04T00:27:30.387Z,13.20
2019-02-04T00:30:01.374Z,13.38
2019-02-04T00:32:32.595Z,12.37
2019-02-04T00:35:03.705Z,12.95
2019-02-04T00:37:34.730Z,12.03
2019-02-04T00:40:10.148Z,13.38
2019-02-04T00:42:41.101Z,13.95
2019-02-04T00:45:12.086Z,15.60
2019-02-04T00:47:43.176Z,13.65
2019-02-04T00:50:19.841Z,11.95
2019-02-04T00:52:50.816Z,12.68
2019-02-04T00:55:21.920Z,12.33
2019-02-04T00:57:52.842Z,13.72
2019-02-04T01:00:29.855Z,13.20
2019-02-04T01:03:01.143Z,13.60
2019-02-04T01:05:32.091Z,12.82
2019-02-04T01:08:03.557Z,13.22
2019-02-04T01:10:34.507Z,10.90
2019-02-04T01:13:05.521Z,13.28
2019-02-04T01:15:36.480Z,13.85
2019-02-04T01:18:07.460Z,14.07
2019-02-04T01:20:38.800Z,13.35
2019-02-04T01:23:09.785Z,15.25
2019-02-04T01:25:40.739Z,13.95
2019-02-04T01:28:11.746Z,15.00
2019-02-04T01:30:42.694Z,16.17
2019-02-04T01:33:13.968Z,14.05
2019-02-04T01:35:44.939Z,14.05
2019-02-04T01:38:15.947Z,12.07
2019-02-04T01:40:46.886Z,12.18
2019-02-04T01:43:17.900Z,13.20
2019-02-04T01:45:50.179Z,13.25
2019-02-04T01:48:21.257Z,13.90
2019-02-04T01:50:52.312Z,12.95
2019-02-04T01:53:23.263Z,14.10
2019-02-04T01:55:54.175Z,13.40
2019-02-04T01:58:26.521Z,13.93
2019-02-04T02:00:57.609Z,13.32
2019-02-04T02:03:28.567Z,12.88
2019-02-04T02:05:59.476Z,12.60
2019-02-04T02:08:30.433Z,12.07
2019-02-04T02:11:02.786Z,12.07
2019-02-04T02:13:33.782Z,12.45
2019-02-04T02:16:04.792Z,13.40
2019-02-04T02:18:35.748Z,13.80
2019-02-04T02:21:06.753Z,13.90
2019-02-04T02:23:37.694Z,12.53
2019-02-04T02:26:08.732Z,14.70
2019-02-04T02:28:39.686Z,13.55
2019-02-04T02:31:10.671Z,13.75
2019-02-04T02:33:41.649Z,12.35
2019-02-04T02:36:12.633Z,13.40
2019-02-04T02:38:43.586Z,13.45
2019-02-04T02:41:14.588Z,12.68
2019-02-04T02:43:45.536Z,12.15
2019-02-04T02:46:16.566Z,12.65
2019-02-04T02:48:47.723Z,12.25
2019-02-04T02:51:18.742Z,13.40
2019-02-04T02:53:49.709Z,13.65
2019-02-04T02:56:20.696Z,13.03
2019-02-04T02:58:51.653Z,13.45
2019-02-04T03:01:23.006Z,14.10
2019-02-04T03:03:54.022Z,14.33
2019-02-04T03:06:25.123Z,15.00
2019-02-04T03:08:56.374Z,12.20
2019-02-04T03:11:27.331Z,14.55
2019-02-04T03:13:58.481Z,16.00
2019-02-04T03:16:29.445Z,14.73
2019-02-04T03:19:00.498Z,14.40
2019-02-04T03:21:31.530Z,14.33
2019-02-04T03:24:02.442Z,14.45
2019-02-04T03:26:33.707Z,14.60
2019-02-04T03:29:04.929Z,14.35
2019-02-04T03:31:39.120Z,14.65
2019-02-04T03:34:09.553Z,13.83
2019-02-04T03:36:40.621Z,14.00
2019-02-04T03:39:11.970Z,13.00
2019-02-04T03:41:42.936Z,13.10
2019-02-04T03:44:13.921Z,37.73
2019-02-04T03:46:44.833Z,15.68
2019-02-04T03:49:15.813Z,15.05
2019-02-04T03:51:47.070Z,13.65
2019-02-04T03:54:18.022Z,14.23
2019-02-04T03:56:49.005Z,14.70
2019-02-04T03:59:19.887Z,15.38
2019-02-04T04:01:50.868Z,14.18
2019-02-04T04:04:22.225Z,12.95
2019-02-04T04:06:53.209Z,13.35
2019-02-04T04:09:24.181Z,12.82
2019-02-04T04:11:55.141Z,13.32
2019-02-04T04:14:26.026Z,13.25
2019-02-04T04:16:57.289Z,12.93
2019-02-04T04:19:28.238Z,12.30
2019-02-04T04:22:00.180Z,14.13
2019-02-04T04:24:31.058Z,11.80
2019-02-04T04:27:03.587Z,11.22
2019-02-04T04:29:34.875Z,12.82
2019-02-04T04:32:05.854Z,14.20
2019-02-04T04:34:36.791Z,11.18
2019-02-04T04:37:07.776Z,14.55
2019-02-04T04:39:38.761Z,12.80
2019-02-04T04:42:09.992Z,26.95
2019-02-04T04:44:40.973Z,40.75
2019-02-04T04:47:11.860Z,15.78
2019-02-04T04:49:42.840Z,13.68
2019-02-04T04:52:13.795Z,12.70
2019-02-04T04:54:44.949Z,13.95
2019-02-04T04:57:15.903Z,12.13
2019-02-04T04:59:46.821Z,12.63
2019-02-04T05:02:17.778Z,12.47
2019-02-04T05:04:48.773Z,13.40
2019-02-04T05:07:20.103Z,13.90
2019-02-04T05:09:51.090Z,13.28
2019-02-04T05:12:22.055Z,12.73
2019-02-04T05:14:52.973Z,14.05
2019-02-04T05:17:23.924Z,13.72
2019-02-04T05:19:55.508Z,12.80
2019-02-04T05:22:26.465Z,15.80
2019-02-04T05:24:57.374Z,14.38
2019-02-04T05:27:28.287Z,13.68
2019-02-04T05:29:59.277Z,13.98
2019-02-04T05:32:30.634Z,12.93
2019-02-04T05:35:01.585Z,14.05
2019-02-04T05:37:32.567Z,12.75
2019-02-04T05:40:03.863Z,13.88
2019-02-04T05:42:34.923Z,13.18
2019-02-04T05:45:09.778Z,12.68
2019-02-04T05:47:40.751Z,13.62
2019-02-04T05:50:19.880Z,12.20
2019-02-04T05:52:51.190Z,15.13
2019-02-04T05:55:23.305Z,13.85
2019-02-04T05:57:54.289Z,14.13
2019-02-04T06:00:35.633Z,13.58
2019-02-04T06:03:07.012Z,13.30
2019-02-04T06:05:37.962Z,15.38
2019-02-04T06:08:08.953Z,18.55
2019-02-04T06:10:39.904Z,16.48
2019-02-04T06:13:10.968Z,15.10
2019-02-04T06:15:41.912Z,14.70
2019-02-04T06:18:12.841Z,15.55
2019-02-04T06:20:43.856Z,15.75
2019-02-04T06:23:14.869Z,13.80
2019-02-04T06:25:45.823Z,14.68
2019-02-04T06:28:17.644Z,16.15
2019-02-04T06:30:48.695Z,14.07
2019-02-04T06:33:19.783Z,15.83
2019-02-04T06:35:50.828Z,14.23
2019-02-04T06:38:21.819Z,16.00
2019-02-04T06:40:52.795Z,14.98
2019-02-04T06:43:23.833Z,14.70
2019-02-04T06:45:54.807Z,16.23
2019-02-04T06:48:25.721Z,16.20
2019-02-04T06:50:56.676Z,14.40
2019-02-04T06:53:27.665Z,14.55
2019-02-04T06:55:58.619Z,15.43
2019-02-04T06:58:29.813Z,15.20
2019-02-04T07:01:00.872Z,18.15
2019-02-04T07:03:31.865Z,25.57
2019-02-04T07:06:02.857Z,16.90
2019-02-04T07:08:33.826Z,19.67
2019-02-04T07:11:05.282Z,17.02
2019-02-04T07:13:39.251Z,16.07
2019-02-04T07:16:08.965Z,16.80
2019-02-04T07:18:39.921Z,17.70
2019-02-04T07:21:10.896Z,16.95
2019-02-04T07:23:42.051Z,15.43
2019-02-04T07:26:12.982Z,17.30
2019-02-04T07:28:43.883Z,17.25
2019-02-04T07:31:14.937Z,15.35
2019-02-04T07:33:45.882Z,16.32
2019-02-04T07:36:16.864Z,16.67
2019-02-04T07:38:47.815Z,15.90
2019-02-04T07:41:18.796Z,15.32
2019-02-04T07:43:49.742Z,15.40
2019-02-04T07:46:20.728Z,15.58
2019-02-04T07:48:51.679Z,14.35
2019-02-04T07:51:22.655Z,15.83
2019-02-04T07:53:53.606Z,14.28
2019-02-04T07:56:25.579Z,15.08
2019-02-04T07:58:56.526Z,14.75
2019-02-04T08:01:27.508Z,17.07
2019-02-04T08:03:58.524Z,14.70
2019-02-04T08:06:29.508Z,15.45
2019-02-04T08:09:00.490Z,18.12
2019-02-04T08:11:33.141Z,16.67
2019-02-04T08:14:04.325Z,15.88
2019-02-04T08:16:35.344Z,15.25
2019-02-04T08:19:06.323Z,14.80
2019-02-04T08:21:37.347Z,16.23
2019-02-04T08:24:08.410Z,18.52
2019-02-04T08:26:39.380Z,16.27
2019-02-04T08:29:10.829Z,16.07
2019-02-04T08:31:41.783Z,16.90
2019-02-04T08:34:12.751Z,16.30
2019-02-04T08:36:46.401Z,15.28
2019-02-04T08:39:16.308Z,15.95
2019-02-04T08:41:47.566Z,18.02
2019-02-04T08:44:18.472Z,16.62
2019-02-04T08:46:49.348Z,16.40
2019-02-04T08:49:20.325Z,16.20
2019-02-04T08:51:51.274Z,17.40
2019-02-04T08:54:22.259Z,15.25
2019-02-04T08:56:53.200Z,14.05
2019-02-04T08:59:24.183Z,12.90
2019-02-04T09:01:55.121Z,13.45
2019-02-04T09:04:27.106Z,14.87
2019-02-04T09:06:58.151Z,15.50
2019-02-04T09:09:29.305Z,14.90
2019-02-04T09:12:00.323Z,14.50
2019-02-04T09:14:31.235Z,15.08
2019-02-04T09:17:02.212Z,12.63
2019-02-04T09:19:33.151Z,12.55
2019-02-04T09:22:04.535Z,11.45
2019-02-04T09:24:35.402Z,12.58
2019-02-04T09:27:06.549Z,11.73
2019-02-04T09:29:37.564Z,11.57
2019-02-04T09:32:08.540Z,13.25
2019-02-04T09:34:39.476Z,15.80
2019-02-04T09:37:10.372Z,13.43
2019-02-04T09:39:41.402Z,12.40
2019-02-04T09:42:12.453Z,15.18
2019-02-04T09:44:43.397Z,13.60
2019-02-04T09:47:14.497Z,10.28
2019-02-04T09:49:45.618Z,10.20
2019-02-04T09:52:16.587Z,11.25
2019-02-04T09:54:47.452Z,9.88
2019-02-04T09:57:18.422Z,10.72
2019-02-04T09:59:50.965Z,11.20
2019-02-04T10:02:22.378Z,11.15
2019-02-04T10:04:53.315Z,10.95
2019-02-04T10:07:24.278Z,11.30
2019-02-04T10:09:55.221Z,10.88
2019-02-04T10:12:26.182Z,10.85
2019-02-04T10:14:57.539Z,45.67
2019-02-04T10:17:28.552Z,14.30
2019-02-04T10:19:59.589Z,10.23
2019-02-04T10:22:30.664Z,8.28
2019-02-04T10:25:01.601Z,11.48
2019-02-04T10:27:35.511Z,11.70
2019-02-04T10:30:10.188Z,13.62
2019-02-04T10:32:41.681Z,10.98
2019-02-04T10:35:16.923Z,12.60
2019-02-04T10:37:50.181Z,12.60
2019-02-04T10:40:30.827Z,12.07
2019-02-04T10:43:02.290Z,11.38
2019-02-04T10:45:33.252Z,11.97
2019-02-04T10:48:04.448Z,11.22
2019-02-04T10:50:46.631Z,10.70
2019-02-04T10:53:16.027Z,12.82
2019-02-04T10:55:47.074Z,12.28
2019-02-04T10:58:19.126Z,9.95
2019-02-04T11:00:50.457Z,9.58
2019-02-04T11:03:21.522Z,10.58
2019-02-04T11:05:52.526Z,10.72
2019-02-04T11:08:23.541Z,10.65
2019-02-04T11:10:54.606Z,11.48
2019-02-04T11:13:26.092Z,9.98
2019-02-04T11:15:57.137Z,11.00
2019-02-04T11:18:28.133Z,9.45
2019-02-04T11:20:59.169Z,11.45
2019-02-04T11:23:30.174Z,11.18
2019-02-04T11:26:01.596Z,12.33
2019-02-04T11:28:32.595Z,10.88
2019-02-04T11:31:03.752Z,8.45
2019-02-04T11:33:34.800Z,11.60
2019-02-04T11:36:05.767Z,9.45
2019-02-04T11:38:37.081Z,9.80
2019-02-04T11:41:08.241Z,11.00
2019-02-04T11:43:39.272Z,11.73
2019-02-04T11:46:10.336Z,12.98
2019-02-04T11:48:41.286Z,12.93
2019-02-04T11:51:12.309Z,12.78
2019-02-04T11:53:43.210Z,10.60
2019-02-04T11:56:14.145Z,10.50
2019-02-04T11:58:45.116Z,12.00
2019-02-04T12:01:16.230Z,12.45
2019-02-04T12:03:47.198Z,28.42
2019-02-04T12:06:18.139Z,12.90
2019-02-04T12:08:49.154Z,13.90
2019-02-04T12:11:20.187Z,13.62
2019-02-04T12:13:51.161Z,15.05
2019-02-04T12:16:22.066Z,14.55
2019-02-04T12:18:53.032Z,13.03
2019-02-04T12:21:23.967Z,16.82
2019-02-04T12:23:55.937Z,13.60
2019-02-04T12:26:26.875Z,13.10
2019-02-04T12:28:58.044Z,15.08
2019-02-04T12:31:29.093Z,13.15
2019-02-04T12:34:00.134Z,13.25
2019-02-04T12:36:31.166Z,14.83
2019-02-04T12:39:02.086Z,13.53
2019-02-04T12:41:33.247Z,13.83
2019-02-04T12:44:04.610Z,13.35
2019-02-04T12:46:35.652Z,11.35
2019-02-04T12:49:06.584Z,12.82
2019-02-04T12:51:37.548Z,12.10
2019-02-04T12:54:08.414Z,14.45
2019-02-04T12:56:39.658Z,13.65
2019-02-04T12:59:10.592Z,12.65
2019-02-04T13:01:41.751Z,12.68
2019-02-04T13:04:12.690Z,11.33
2019-02-04T13:06:43.657Z,12.90
2019-02-04T13:09:16.430Z,12.88
2019-02-04T13:11:47.450Z,12.18
2019-02-04T13:14:18.314Z,13.20
2019-02-04T13:16:49.284Z,12.55
2019-02-04T13:19:20.222Z,11.12
2019-02-04T13:21:51.494Z,12.85
2019-02-04T13:24:22.359Z,11.20
2019-02-04T13:26:53.322Z,12.47
2019-02-04T13:29:24.293Z,11.03
2019-02-04T13:31:55.287Z,10.98
2019-02-04T13:34:26.257Z,11.50
2019-02-04T13:36:57.201Z,11.35
2019-02-04T13:39:28.167Z,10.03
2019-02-04T13:41:59.068Z,11.08
2019-02-04T13:44:30.045Z,83.22
2019-02-04T13:47:00.937Z,25.17
2019-02-04T13:49:31.959Z,13.20
2019-02-04T13:52:02.900Z,39.40
2019-02-04T13:54:33.877Z,12.68
2019-02-04T13:57:04.828Z,12.58
2019-02-04T13:59:36.870Z,11.35
2019-02-04T14:02:07.810Z,11.53
2019-02-04T14:04:38.777Z,14.58
2019-02-04T14:07:09.716Z,14.85
2019-02-04T14:09:40.687Z,13.98
2019-02-04T14:12:11.620Z,14.70
2019-02-04T14:14:42.584Z,13.10
2019-02-04T14:17:13.514Z,13.18
2019-02-04T14:19:44.492Z,12.40
2019-02-04T14:22:15.440Z,11.95
2019-02-04T14:24:46.413Z,10.03
2019-02-04T14:27:17.382Z,10.75
2019-02-04T14:29:48.409Z,11.45
2019-02-04T14:32:19.435Z,12.00
2019-02-04T14:34:51.403Z,11.20
2019-02-04T14:37:22.475Z,11.25
2019-02-04T14:39:53.386Z,12.78
2019-02-04T14:42:24.332Z,11.83
2019-02-04T14:44:55.423Z,16.77
2019-02-04T14:47:33.613Z,18.15
2019-02-04T14:50:09.143Z,12.05
2019-02-04T14:53:01.692Z,11.48
2019-02-04T14:55:51.712Z,15.72
2019-02-04T14:58:32.307Z,19.45
2019-02-04T15:01:46.447Z,15.18
2019-02-04T15:04:27.685Z,14.13
2019-02-04T15:07:17.080Z,12.98
2019-02-04T15:10:31.442Z,13.03
2019-02-04T15:13:38.311Z,14.93
2019-02-04T15:16:31.240Z,14.83
2019-02-04T15:19:33.708Z,12.75
2019-02-04T15:22:15.010Z,13.53
2019-02-04T15:25:17.252Z,13.48
2019-02-04T15:28:00.859Z,14.25
2019-02-04T15:30:38.859Z,14.87
2019-02-04T15:33:35.116Z,15.80
2019-02-04T15:36:45.051Z,13.35
2019-02-04T15:39:29.030Z,13.58
2019-02-04T15:42:53.906Z,14.75
2019-02-04T15:45:53.026Z,15.60
2019-02-04T15:48:28.370Z,16.73
2019-02-04T15:51:15.742Z,17.82
2019-02-04T15:53:46.610Z,16.15
2019-02-04T15:56:17.549Z,17.42
2019-02-04T15:58:48.563Z,18.67
2019-02-04T16:01:19.462Z,17.30
2019-02-04T16:03:50.410Z,16.82
2019-02-04T16:06:21.432Z,17.95
2019-02-04T16:08:52.623Z,17.17
2019-02-04T16:11:23.707Z,19.55
2019-02-04T16:13:54.655Z,18.00
2019-02-04T16:16:25.717Z,16.48
2019-02-04T16:18:56.672Z,18.25
2019-02-04T16:21:28.267Z,19.23
2019-02-04T16:23:59.279Z,16.65
2019-02-04T16:26:31.352Z,17.30
2019-02-04T16:29:04.028Z,18.20
2019-02-04T16:31:35.053Z,18.30
2019-02-04T16:34:06.367Z,19.23
2019-02-04T16:36:37.301Z,17.80
2019-02-04T16:39:10.788Z,19.55
2019-02-04T16:41:41.778Z,18.02
2019-02-04T16:44:13.160Z,18.30
2019-02-04T16:46:44.420Z,19.98
2019-02-04T16:49:15.401Z,19.25
2019-02-04T16:51:46.356Z,16.73
2019-02-04T16:54:17.413Z,18.73
2019-02-04T16:56:48.363Z,15.85
2019-02-04T16:59:19.729Z,16.62
2019-02-04T17:01:50.676Z,19.87
2019-02-04T17:04:21.654Z,15.78
2019-02-04T17:06:52.544Z,18.27
2019-02-04T17:09:23.524Z,17.90
2019-02-04T17:11:54.570Z,18.90
2019-02-04T17:14:26.558Z,17.57
2019-02-04T17:16:57.516Z,18.35
2019-02-04T17:19:28.515Z,19.48
2019-02-04T17:21:59.538Z,16.35
2019-02-04T17:24:30.518Z,18.65
2019-02-04T17:27:01.476Z,15.60
2019-02-04T17:29:32.540Z,17.82
2019-02-04T17:32:04.492Z,20.00
2019-02-04T17:34:35.532Z,15.68
2019-02-04T17:37:06.476Z,16.90
2019-02-04T17:39:37.607Z,17.82
2019-02-04T17:42:08.626Z,18.35
2019-02-04T17:44:39.708Z,19.02
2019-02-04T17:47:10.691Z,19.42
2019-02-04T17:49:41.678Z,19.87
2019-02-04T17:52:12.847Z,19.92
2019-02-04T17:54:43.918Z,20.60
2019-02-04T17:57:15.086Z,20.77
2019-02-04T17:59:46.073Z,20.80
2019-02-04T18:02:17.072Z,20.08
2019-02-04T18:04:48.394Z,20.50
2019-02-04T18:07:20.654Z,22.95
2019-02-04T18:09:51.740Z,22.77
2019-02-04T18:12:22.813Z,24.77
2019-02-04T18:14:53.753Z,26.23
2019-02-04T18:17:25.125Z,30.27
2019-02-04T18:19:56.207Z,27.70
2019-02-04T18:22:27.227Z,29.60
2019-02-04T18:24:58.212Z,27.58
2019-02-04T18:27:29.198Z,28.67
2019-02-04T18:30:00.232Z,23.83
2019-02-04T18:32:31.296Z,25.65
2019-02-04T18:35:02.332Z,26.12
2019-02-04T18:37:34.385Z,24.02
2019-02-04T18:40:09.787Z,24.98
2019-02-04T18:42:41.149Z,21.65
2019-02-04T18:45:27.220Z,22.20
2019-02-04T18:47:58.212Z,22.60
2019-02-04T18:50:29.999Z,25.30
2019-02-04T18:53:01.117Z,27.98
2019-02-04T18:55:35.464Z,24.25
2019-02-04T18:58:06.580Z,24.50
2019-02-04T19:00:37.889Z,28.05
2019-02-04T19:03:16.872Z,23.20
2019-02-04T19:05:42.011Z,20.05
2019-02-04T19:08:12.971Z,22.90
2019-02-04T19:10:43.951Z,25.72
2019-02-04T19:13:14.904Z,22.93
2019-02-04T19:15:46.043Z,21.10
2019-02-04T19:18:18.853Z,21.93
2019-02-04T19:20:49.972Z,25.72
2019-02-04T19:23:21.016Z,24.20
2019-02-04T19:25:52.069Z,24.95
2019-02-04T19:28:23.321Z,24.70
2019-02-04T19:31:01.731Z,27.25
2019-02-04T19:33:32.700Z,26.77
2019-02-04T19:36:03.798Z,25.68
2019-02-04T19:38:34.826Z,26.07
2019-02-04T19:41:06.206Z,26.35
2019-02-04T19:43:37.157Z,28.67
2019-02-04T19:46:08.175Z,28.55
2019-02-04T19:48:39.250Z,30.65
2019-02-04T19:51:10.236Z,31.45
2019-02-04T19:53:41.460Z,34.95
2019-02-04T19:56:12.413Z,32.15
2019-02-04T19:58:43.405Z,32.15
2019-02-04T20:01:14.304Z,31.73
2019-02-04T20:03:45.367Z,30.70
2019-02-04T20:06:16.419Z,30.37
2019-02-04T20:08:47.406Z,31.05
2019-02-04T20:11:18.358Z,31.37
2019-02-04T20:13:49.342Z,31.20
2019-02-04T20:16:20.294Z,30.95
2019-02-04T20:18:51.284Z,32.35
2019-02-04T20:21:22.237Z,28.87
2019-02-04T20:23:53.251Z,30.97
2019-02-04T20:26:24.304Z,28.90
2019-02-04T20:28:55.340Z,30.75
2019-02-04T20:31:26.356Z,29.98
2019-02-04T20:33:57.386Z,27.50
2019-02-04T20:36:30.308Z,30.52
2019-02-04T20:39:01.270Z,27.40
2019-02-04T20:41:33.387Z,29.37
2019-02-04T20:44:04.400Z,27.60
2019-02-04T20:46:35.559Z,26.15
2019-02-04T20:49:06.518Z,26.97
2019-02-04T20:51:37.434Z,27.80
2019-02-04T20:54:19.483Z,29.50
2019-02-04T20:56:42.157Z,27.45
2019-02-04T20:59:13.341Z,28.32
2019-02-04T21:01:44.318Z,29.15
2019-02-04T21:04:15.302Z,27.52
2019-02-04T21:06:55.709Z,26.62
2019-02-04T21:09:19.764Z,29.02
2019-02-04T21:11:51.126Z,23.65
2019-02-04T21:14:22.025Z,24.72
2019-02-04T21:16:53.006Z,25.97
2019-02-04T21:19:23.978Z,26.52
2019-02-04T21:21:55.950Z,25.17
2019-02-04T21:24:27.971Z,25.10
2019-02-04T21:26:58.956Z,26.73
2019-02-04T21:29:29.943Z,31.05
2019-02-04T21:32:01.928Z,24.75
2019-02-04T21:34:33.919Z,23.12
2019-02-04T21:37:06.294Z,25.12
2019-02-04T21:39:37.318Z,25.12
2019-02-04T21:42:09.317Z,23.45
2019-02-04T21:44:40.303Z,24.43
2019-02-04T21:47:11.261Z,27.60
2019-02-04T21:49:42.652Z,26.75
2019-02-04T21:52:13.654Z,26.93
2019-02-04T21:54:44.634Z,24.95
2019-02-04T21:57:15.591Z,25.52
2019-02-04T21:59:46.575Z,27.25
2019-02-04T22:02:17.761Z,26.45
2019-02-04T22:04:48.691Z,27.73
2019-02-04T22:07:20.649Z,26.40
2019-02-04T22:09:51.631Z,28.95
2019-02-04T22:12:22.854Z,27.70
2019-02-04T22:14:53.834Z,28.95
2019-02-04T22:17:24.964Z,25.05
2019-02-04T22:19:55.949Z,27.85
2019-02-04T22:22:27.272Z,27.48
2019-02-04T22:24:58.260Z,25.97
2019-02-04T22:27:29.478Z,28.25
2019-02-04T22:30:00.396Z,25.00
2019-02-04T22:32:31.727Z,24.05
2019-02-04T22:35:02.638Z,24.55
2019-02-04T22:37:33.592Z,21.73
2019-02-04T22:40:07.544Z,21.60
2019-02-04T22:42:38.810Z,21.97
2019-02-04T22:45:13.656Z,21.30
2019-02-04T22:47:44.607Z,22.55
2019-02-04T22:50:19.638Z,19.45
2019-02-04T22:52:50.622Z,23.02
2019-02-04T22:55:31.701Z,23.27
2019-02-04T22:57:54.677Z,22.15
2019-02-04T23:01:00.711Z,21.33
2019-02-04T23:03:31.686Z,24.65
2019-02-04T23:06:02.603Z,20.95
2019-02-04T23:08:33.482Z,19.52
2019-02-04T23:11:04.565Z,21.00
2019-02-04T23:13:35.925Z,21.93
2019-02-04T23:16:08.131Z,18.02
2019-02-04T23:18:39.119Z,20.45
2019-02-04T23:21:10.075Z,18.75
2019-02-04T23:23:41.050Z,17.62
2019-02-04T23:26:12.974Z,17.60
2019-02-04T23:28:43.995Z,17.85
2019-02-04T23:31:14.946Z,17.15
2019-02-04T23:33:45.925Z,16.87
2019-02-04T23:36:16.982Z,19.77
2019-02-04T23:38:48.344Z,19.05
2019-02-04T23:41:19.230Z,21.02
2019-02-04T23:43:50.225Z,18.85
2019-02-04T23:46:21.121Z,18.60
2019-02-04T23:48:52.100Z,18.50
2019-02-04T23:51:23.014Z,19.62
2019-02-04T23:53:53.969Z,17.77
2019-02-04T23:56:24.956Z,17.35
2019-02-04T23:58:55.917Z,15.63
